sensor_id;sensor_type;location;lat;lon;timestamp;P1;durP1;ratioP1;P2;durP2;ratioP2
61702;SDS011;47622;47.726;3.298;2023-02-28T00:01:31;4.88;;;3.92;;
61702;SDS011;47622;47.726;3.298;2023-02-28T00:03:57;5.93;;;4.40;;
61702;SDS011;47622;47.726;3.298;2023-02-28T00:06:23;6.82;;;4.10;;
61702;SDS011;47622;47.726;3.298;2023-02-28T00:08:49;4.90;;;4.00;;
61702;SDS011;47622;47.726;3.298;2023-02-28T00:11:15;6.45;;;4.57;;
61702;SDS011;47622;47.726;3.298;2023-02-28T00:13:42;6.57;;;4.40;;
61702;SDS011;47622;47.726;3.298;2023-02-28T00:16:12;6.80;;;4.05;;
61702;SDS011;47622;47.726;3.298;2023-02-28T00:18:40;5.72;;;4.38;;
61702;SDS011;47622;47.726;3.298;2023-02-28T00:21:06;6.25;;;4.47;;
61702;SDS011;47622;47.726;3.298;2023-02-28T00:23:32;6.95;;;3.85;;
61702;SDS011;47622;47.726;3.298;2023-02-28T00:25:58;8.60;;;5.25;;
61702;SDS011;47622;47.726;3.298;2023-02-28T00:28:24;6.25;;;4.60;;
61702;SDS011;47622;47.726;3.298;2023-02-28T00:30:51;6.38;;;4.30;;
61702;SDS011;47622;47.726;3.298;2023-02-28T00:33:17;6.82;;;4.30;;
61702;SDS011;47622;47.726;3.298;2023-02-28T00:35:42;6.60;;;4.05;;
61702;SDS011;47622;47.726;3.298;2023-02-28T00:38:11;5.00;;;4.10;;
61702;SDS011;47622;47.726;3.298;2023-02-28T00:40:37;5.72;;;3.78;;
61702;SDS011;47622;47.726;3.298;2023-02-28T00:43:02;4.47;;;3.70;;
61702;SDS011;47622;47.726;3.298;2023-02-28T00:45:29;5.63;;;4.13;;
61702;SDS011;47622;47.726;3.298;2023-02-28T00:47:54;5.70;;;4.07;;
61702;SDS011;47622;47.726;3.298;2023-02-28T00:50:20;5.80;;;3.95;;
61702;SDS011;47622;47.726;3.298;2023-02-28T00:52:47;6.72;;;4.10;;
61702;SDS011;47622;47.726;3.298;2023-02-28T00:55:12;11.18;;;4.28;;
61702;SDS011;47622;47.726;3.298;2023-02-28T00:57:38;5.57;;;4.18;;
61702;SDS011;47622;47.726;3.298;2023-02-28T01:00:05;6.68;;;4.25;;
61702;SDS011;47622;47.726;3.298;2023-02-28T01:02:32;5.70;;;3.90;;
61702;SDS011;47622;47.726;3.298;2023-02-28T01:04:57;6.35;;;4.35;;
61702;SDS011;47622;47.726;3.298;2023-02-28T01:07:23;5.22;;;4.15;;
61702;SDS011;47622;47.726;3.298;2023-02-28T01:09:48;5.18;;;4.03;;
61702;SDS011;47622;47.726;3.298;2023-02-28T01:12:14;8.00;;;4.50;;
61702;SDS011;47622;47.726;3.298;2023-02-28T01:14:41;5.15;;;4.25;;
61702;SDS011;47622;47.726;3.298;2023-02-28T01:17:07;4.43;;;3.90;;
61702;SDS011;47622;47.726;3.298;2023-02-28T01:19:33;5.38;;;4.25;;
61702;SDS011;47622;47.726;3.298;2023-02-28T01:22:02;6.25;;;4.20;;
61702;SDS011;47622;47.726;3.298;2023-02-28T01:24:29;6.38;;;4.43;;
61702;SDS011;47622;47.726;3.298;2023-02-28T01:26:55;3.75;;;3.33;;
61702;SDS011;47622;47.726;3.298;2023-02-28T01:29:20;8.73;;;4.15;;
61702;SDS011;47622;47.726;3.298;2023-02-28T01:31:46;7.32;;;4.80;;
61702;SDS011;47622;47.726;3.298;2023-02-28T01:34:11;8.88;;;4.25;;
61702;SDS011;47622;47.726;3.298;2023-02-28T01:36:37;5.47;;;3.72;;
61702;SDS011;47622;47.726;3.298;2023-02-28T01:39:03;10.10;;;4.50;;
61702;SDS011;47622;47.726;3.298;2023-02-28T01:41:30;4.28;;;3.88;;
61702;SDS011;47622;47.726;3.298;2023-02-28T01:44:04;5.18;;;4.10;;
61702;SDS011;47622;47.726;3.298;2023-02-28T01:46:32;6.30;;;4.38;;
61702;SDS011;47622;47.726;3.298;2023-02-28T01:49:13;5.88;;;4.20;;
61702;SDS011;47622;47.726;3.298;2023-02-28T01:51:43;6.53;;;4.57;;
61702;SDS011;47622;47.726;3.298;2023-02-28T01:54:16;4.70;;;4.18;;
61702;SDS011;47622;47.726;3.298;2023-02-28T01:56:49;6.28;;;3.97;;
61702;SDS011;47622;47.726;3.298;2023-02-28T01:59:25;5.20;;;4.13;;
61702;SDS011;47622;47.726;3.298;2023-02-28T02:01:55;6.88;;;4.25;;
61702;SDS011;47622;47.726;3.298;2023-02-28T02:04:22;5.63;;;4.05;;
61702;SDS011;47622;47.726;3.298;2023-02-28T02:06:51;3.95;;;3.53;;
61702;SDS011;47622;47.726;3.298;2023-02-28T02:09:17;4.00;;;3.60;;
61702;SDS011;47622;47.726;3.298;2023-02-28T02:11:43;5.07;;;3.72;;
61702;SDS011;47622;47.726;3.298;2023-02-28T02:14:14;5.57;;;3.97;;
61702;SDS011;47622;47.726;3.298;2023-02-28T02:17:01;4.22;;;3.38;;
61702;SDS011;47622;47.726;3.298;2023-02-28T02:25:15;5.28;;;3.78;;
61702;SDS011;47622;47.726;3.298;2023-02-28T02:33:33;6.57;;;3.95;;
61702;SDS011;47622;47.726;3.298;2023-02-28T02:38:42;5.28;;;3.55;;
61702;SDS011;47622;47.726;3.298;2023-02-28T02:46:34;4.63;;;3.73;;
61702;SDS011;47622;47.726;3.298;2023-02-28T02:49:04;5.28;;;3.65;;
61702;SDS011;47622;47.726;3.298;2023-02-28T02:51:34;5.53;;;3.75;;
61702;SDS011;47622;47.726;3.298;2023-02-28T02:54:37;6.22;;;4.35;;
61702;SDS011;47622;47.726;3.298;2023-02-28T02:57:07;3.80;;;3.40;;
61702;SDS011;47622;47.726;3.298;2023-02-28T02:59:36;4.90;;;3.58;;
61702;SDS011;47622;47.726;3.298;2023-02-28T03:02:05;6.90;;;3.58;;
61702;SDS011;47622;47.726;3.298;2023-02-28T03:04:40;6.85;;;3.38;;
61702;SDS011;47622;47.726;3.298;2023-02-28T03:07:10;5.95;;;3.78;;
61702;SDS011;47622;47.726;3.298;2023-02-28T03:09:35;3.80;;;3.22;;
61702;SDS011;47622;47.726;3.298;2023-02-28T03:12:01;6.80;;;3.97;;
61702;SDS011;47622;47.726;3.298;2023-02-28T03:19:59;5.15;;;3.60;;
61702;SDS011;47622;47.726;3.298;2023-02-28T03:25:27;4.50;;;3.53;;
61702;SDS011;47622;47.726;3.298;2023-02-28T03:30:49;5.40;;;3.70;;
61702;SDS011;47622;47.726;3.298;2023-02-28T03:33:27;5.85;;;4.22;;
61702;SDS011;47622;47.726;3.298;2023-02-28T03:36:13;4.53;;;3.60;;
61702;SDS011;47622;47.726;3.298;2023-02-28T03:38:49;5.65;;;3.90;;
61702;SDS011;47622;47.726;3.298;2023-02-28T03:41:21;4.20;;;3.50;;
61702;SDS011;47622;47.726;3.298;2023-02-28T03:43:53;4.38;;;3.50;;
61702;SDS011;47622;47.726;3.298;2023-02-28T03:46:21;5.07;;;3.78;;
61702;SDS011;47622;47.726;3.298;2023-02-28T03:48:55;5.47;;;3.40;;
61702;SDS011;47622;47.726;3.298;2023-02-28T03:51:28;4.68;;;3.80;;
61702;SDS011;47622;47.726;3.298;2023-02-28T03:53:56;4.68;;;3.70;;
61702;SDS011;47622;47.726;3.298;2023-02-28T03:56:31;4.18;;;3.05;;
61702;SDS011;47622;47.726;3.298;2023-02-28T03:59:05;5.05;;;3.45;;
61702;SDS011;47622;47.726;3.298;2023-02-28T04:04:06;5.35;;;3.63;;
61702;SDS011;47622;47.726;3.298;2023-02-28T04:06:33;4.93;;;3.17;;
61702;SDS011;47622;47.726;3.298;2023-02-28T04:08:59;4.82;;;3.40;;
61702;SDS011;47622;47.726;3.298;2023-02-28T04:14:00;5.07;;;3.28;;
61702;SDS011;47622;47.726;3.298;2023-02-28T04:16:27;4.20;;;3.25;;
61702;SDS011;47622;47.726;3.298;2023-02-28T04:18:53;5.55;;;3.75;;
61702;SDS011;47622;47.726;3.298;2023-02-28T04:21:19;5.55;;;3.53;;
61702;SDS011;47622;47.726;3.298;2023-02-28T04:23:47;4.18;;;3.22;;
61702;SDS011;47622;47.726;3.298;2023-02-28T04:26:13;4.38;;;3.78;;
61702;SDS011;47622;47.726;3.298;2023-02-28T04:28:38;4.07;;;3.67;;
61702;SDS011;47622;47.726;3.298;2023-02-28T04:31:04;4.35;;;3.60;;
61702;SDS011;47622;47.726;3.298;2023-02-28T04:33:31;6.85;;;3.80;;
61702;SDS011;47622;47.726;3.298;2023-02-28T04:36:01;3.53;;;3.22;;
61702;SDS011;47622;47.726;3.298;2023-02-28T04:38:29;6.03;;;3.35;;
61702;SDS011;47622;47.726;3.298;2023-02-28T04:40:58;4.43;;;3.45;;
61702;SDS011;47622;47.726;3.298;2023-02-28T04:43:25;4.88;;;3.50;;
61702;SDS011;47622;47.726;3.298;2023-02-28T04:45:51;6.15;;;3.38;;
61702;SDS011;47622;47.726;3.298;2023-02-28T04:48:17;6.65;;;3.20;;
61702;SDS011;47622;47.726;3.298;2023-02-28T04:50:43;4.28;;;3.10;;
61702;SDS011;47622;47.726;3.298;2023-02-28T04:53:08;5.05;;;3.40;;
61702;SDS011;47622;47.726;3.298;2023-02-28T04:55:34;3.88;;;3.20;;
61702;SDS011;47622;47.726;3.298;2023-02-28T04:58:00;4.45;;;3.20;;
61702;SDS011;47622;47.726;3.298;2023-02-28T05:00:25;5.05;;;3.42;;
61702;SDS011;47622;47.726;3.298;2023-02-28T05:02:51;4.60;;;3.33;;
61702;SDS011;47622;47.726;3.298;2023-02-28T05:05:16;4.03;;;3.20;;
61702;SDS011;47622;47.726;3.298;2023-02-28T05:07:44;3.72;;;3.00;;
61702;SDS011;47622;47.726;3.298;2023-02-28T05:10:10;4.10;;;3.30;;
61702;SDS011;47622;47.726;3.298;2023-02-28T05:12:36;5.20;;;3.75;;
61702;SDS011;47622;47.726;3.298;2023-02-28T05:15:02;4.57;;;3.20;;
61702;SDS011;47622;47.726;3.298;2023-02-28T05:17:30;6.65;;;3.47;;
61702;SDS011;47622;47.726;3.298;2023-02-28T05:19:55;6.13;;;3.90;;
61702;SDS011;47622;47.726;3.298;2023-02-28T05:22:21;3.78;;;3.38;;
61702;SDS011;47622;47.726;3.298;2023-02-28T05:24:47;5.20;;;3.38;;
61702;SDS011;47622;47.726;3.298;2023-02-28T05:27:12;4.80;;;3.70;;
61702;SDS011;47622;47.726;3.298;2023-02-28T05:29:38;4.53;;;3.55;;
61702;SDS011;47622;47.726;3.298;2023-02-28T05:32:08;3.30;;;3.00;;
61702;SDS011;47622;47.726;3.298;2023-02-28T05:34:35;3.45;;;3.13;;
61702;SDS011;47622;47.726;3.298;2023-02-28T05:37:05;4.25;;;3.50;;
61702;SDS011;47622;47.726;3.298;2023-02-28T05:39:32;3.75;;;3.10;;
61702;SDS011;47622;47.726;3.298;2023-02-28T05:41:58;4.45;;;3.45;;
61702;SDS011;47622;47.726;3.298;2023-02-28T05:44:24;4.70;;;2.80;;
61702;SDS011;47622;47.726;3.298;2023-02-28T05:46:49;4.47;;;3.33;;
61702;SDS011;47622;47.726;3.298;2023-02-28T05:49:15;5.00;;;3.28;;
61702;SDS011;47622;47.726;3.298;2023-02-28T05:51:41;3.22;;;2.90;;
61702;SDS011;47622;47.726;3.298;2023-02-28T05:54:07;4.63;;;3.50;;
61702;SDS011;47622;47.726;3.298;2023-02-28T05:56:32;3.70;;;3.00;;
61702;SDS011;47622;47.726;3.298;2023-02-28T05:59:00;4.68;;;3.42;;
61702;SDS011;47622;47.726;3.298;2023-02-28T06:01:36;4.45;;;3.33;;
61702;SDS011;47622;47.726;3.298;2023-02-28T06:04:04;3.85;;;3.40;;
61702;SDS011;47622;47.726;3.298;2023-02-28T06:06:31;6.60;;;3.78;;
61702;SDS011;47622;47.726;3.298;2023-02-28T06:08:59;4.43;;;3.28;;
61702;SDS011;47622;47.726;3.298;2023-02-28T06:11:26;4.00;;;3.03;;
61702;SDS011;47622;47.726;3.298;2023-02-28T06:13:55;7.28;;;3.85;;
61702;SDS011;47622;47.726;3.298;2023-02-28T06:16:22;4.38;;;3.58;;
61702;SDS011;47622;47.726;3.298;2023-02-28T06:18:48;5.25;;;3.42;;
61702;SDS011;47622;47.726;3.298;2023-02-28T06:21:14;4.20;;;3.20;;
61702;SDS011;47622;47.726;3.298;2023-02-28T06:23:41;3.90;;;3.42;;
61702;SDS011;47622;47.726;3.298;2023-02-28T06:26:06;5.18;;;3.65;;
61702;SDS011;47622;47.726;3.298;2023-02-28T06:28:32;4.57;;;3.67;;
61702;SDS011;47622;47.726;3.298;2023-02-28T06:30:58;3.78;;;3.35;;
61702;SDS011;47622;47.726;3.298;2023-02-28T06:33:23;5.13;;;3.80;;
61702;SDS011;47622;47.726;3.298;2023-02-28T06:35:50;5.97;;;3.85;;
61702;SDS011;47622;47.726;3.298;2023-02-28T06:38:16;4.35;;;3.47;;
61702;SDS011;47622;47.726;3.298;2023-02-28T06:40:43;4.22;;;3.55;;
61702;SDS011;47622;47.726;3.298;2023-02-28T06:43:09;4.68;;;3.72;;
61702;SDS011;47622;47.726;3.298;2023-02-28T06:45:41;7.63;;;3.92;;
61702;SDS011;47622;47.726;3.298;2023-02-28T06:48:08;6.97;;;4.07;;
61702;SDS011;47622;47.726;3.298;2023-02-28T06:50:34;5.53;;;4.00;;
61702;SDS011;47622;47.726;3.298;2023-02-28T06:52:59;5.00;;;3.63;;
61702;SDS011;47622;47.726;3.298;2023-02-28T06:55:25;6.38;;;3.88;;
61702;SDS011;47622;47.726;3.298;2023-02-28T06:57:51;5.20;;;4.03;;
61702;SDS011;47622;47.726;3.298;2023-02-28T07:00:16;4.90;;;3.88;;
61702;SDS011;47622;47.726;3.298;2023-02-28T07:02:42;5.18;;;3.63;;
61702;SDS011;47622;47.726;3.298;2023-02-28T07:05:08;5.32;;;3.60;;
61702;SDS011;47622;47.726;3.298;2023-02-28T07:07:34;5.75;;;4.18;;
61702;SDS011;47622;47.726;3.298;2023-02-28T07:10:01;5.00;;;3.70;;
61702;SDS011;47622;47.726;3.298;2023-02-28T07:12:27;4.72;;;3.55;;
61702;SDS011;47622;47.726;3.298;2023-02-28T07:14:53;4.80;;;3.50;;
61702;SDS011;47622;47.726;3.298;2023-02-28T07:17:20;4.40;;;3.67;;
61702;SDS011;47622;47.726;3.298;2023-02-28T07:19:46;5.72;;;3.72;;
61702;SDS011;47622;47.726;3.298;2023-02-28T07:22:12;4.97;;;3.50;;
61702;SDS011;47622;47.726;3.298;2023-02-28T07:24:37;5.68;;;3.58;;
61702;SDS011;47622;47.726;3.298;2023-02-28T07:27:03;4.10;;;3.70;;
61702;SDS011;47622;47.726;3.298;2023-02-28T07:29:29;7.00;;;3.80;;
61702;SDS011;47622;47.726;3.298;2023-02-28T07:31:54;5.63;;;3.70;;
61702;SDS011;47622;47.726;3.298;2023-02-28T07:34:21;4.70;;;3.67;;
61702;SDS011;47622;47.726;3.298;2023-02-28T07:36:47;5.50;;;3.80;;
61702;SDS011;47622;47.726;3.298;2023-02-28T07:39:12;6.05;;;3.42;;
61702;SDS011;47622;47.726;3.298;2023-02-28T07:41:38;3.50;;;3.15;;
61702;SDS011;47622;47.726;3.298;2023-02-28T07:44:11;4.80;;;3.60;;
61702;SDS011;47622;47.726;3.298;2023-02-28T07:46:37;4.72;;;3.10;;
61702;SDS011;47622;47.726;3.298;2023-02-28T07:49:03;4.43;;;3.20;;
61702;SDS011;47622;47.726;3.298;2023-02-28T07:51:29;4.43;;;3.53;;
61702;SDS011;47622;47.726;3.298;2023-02-28T07:53:55;4.47;;;3.67;;
61702;SDS011;47622;47.726;3.298;2023-02-28T07:56:21;4.93;;;3.55;;
61702;SDS011;47622;47.726;3.298;2023-02-28T07:58:47;6.10;;;4.03;;
61702;SDS011;47622;47.726;3.298;2023-02-28T08:01:13;4.22;;;3.03;;
61702;SDS011;47622;47.726;3.298;2023-02-28T08:03:39;4.00;;;3.40;;
61702;SDS011;47622;47.726;3.298;2023-02-28T08:06:05;3.95;;;3.13;;
61702;SDS011;47622;47.726;3.298;2023-02-28T08:08:33;3.92;;;3.53;;
61702;SDS011;47622;47.726;3.298;2023-02-28T08:10:59;4.43;;;3.35;;
61702;SDS011;47622;47.726;3.298;2023-02-28T08:13:26;4.53;;;3.38;;
61702;SDS011;47622;47.726;3.298;2023-02-28T08:15:55;6.32;;;3.65;;
61702;SDS011;47622;47.726;3.298;2023-02-28T08:18:21;4.88;;;3.33;;
61702;SDS011;47622;47.726;3.298;2023-02-28T08:20:47;5.65;;;3.90;;
61702;SDS011;47622;47.726;3.298;2023-02-28T08:23:13;4.90;;;3.30;;
61702;SDS011;47622;47.726;3.298;2023-02-28T08:25:39;4.25;;;3.53;;
61702;SDS011;47622;47.726;3.298;2023-02-28T08:28:05;4.80;;;3.35;;
61702;SDS011;47622;47.726;3.298;2023-02-28T08:30:30;3.58;;;3.10;;
61702;SDS011;47622;47.726;3.298;2023-02-28T08:32:56;4.53;;;3.38;;
61702;SDS011;47622;47.726;3.298;2023-02-28T08:35:22;6.28;;;3.70;;
61702;SDS011;47622;47.726;3.298;2023-02-28T08:37:48;4.18;;;3.40;;
61702;SDS011;47622;47.726;3.298;2023-02-28T08:40:14;5.38;;;3.95;;
61702;SDS011;47622;47.726;3.298;2023-02-28T08:42:46;4.78;;;3.55;;
61702;SDS011;47622;47.726;3.298;2023-02-28T08:45:13;6.72;;;4.13;;
61702;SDS011;47622;47.726;3.298;2023-02-28T08:47:40;4.72;;;3.58;;
61702;SDS011;47622;47.726;3.298;2023-02-28T08:50:06;7.70;;;4.38;;
61702;SDS011;47622;47.726;3.298;2023-02-28T08:52:32;7.22;;;3.80;;
61702;SDS011;47622;47.726;3.298;2023-02-28T08:54:58;4.63;;;3.85;;
61702;SDS011;47622;47.726;3.298;2023-02-28T08:57:24;5.25;;;3.90;;
61702;SDS011;47622;47.726;3.298;2023-02-28T08:59:51;6.07;;;4.18;;
61702;SDS011;47622;47.726;3.298;2023-02-28T09:02:17;5.20;;;3.67;;
61702;SDS011;47622;47.726;3.298;2023-02-28T09:04:43;5.13;;;3.95;;
61702;SDS011;47622;47.726;3.298;2023-02-28T09:07:10;5.63;;;3.80;;
61702;SDS011;47622;47.726;3.298;2023-02-28T09:09:37;4.72;;;4.22;;
61702;SDS011;47622;47.726;3.298;2023-02-28T09:12:02;5.82;;;4.05;;
61702;SDS011;47622;47.726;3.298;2023-02-28T09:14:28;4.93;;;3.92;;
61702;SDS011;47622;47.726;3.298;2023-02-28T09:16:54;6.47;;;4.20;;
61702;SDS011;47622;47.726;3.298;2023-02-28T09:19:20;5.90;;;3.90;;
61702;SDS011;47622;47.726;3.298;2023-02-28T09:21:45;6.28;;;4.15;;
61702;SDS011;47622;47.726;3.298;2023-02-28T09:24:11;5.70;;;3.90;;
61702;SDS011;47622;47.726;3.298;2023-02-28T09:26:39;4.88;;;3.80;;
61702;SDS011;47622;47.726;3.298;2023-02-28T09:29:05;4.72;;;3.85;;
61702;SDS011;47622;47.726;3.298;2023-02-28T09:31:31;5.70;;;3.90;;
61702;SDS011;47622;47.726;3.298;2023-02-28T09:33:57;4.95;;;3.90;;
61702;SDS011;47622;47.726;3.298;2023-02-28T09:36:25;5.18;;;3.65;;
61702;SDS011;47622;47.726;3.298;2023-02-28T09:38:53;4.47;;;3.78;;
61702;SDS011;47622;47.726;3.298;2023-02-28T09:41:20;4.57;;;3.83;;
61702;SDS011;47622;47.726;3.298;2023-02-28T09:43:57;5.25;;;3.75;;
61702;SDS011;47622;47.726;3.298;2023-02-28T09:46:27;5.60;;;4.30;;
61702;SDS011;47622;47.726;3.298;2023-02-28T09:48:53;4.82;;;3.92;;
61702;SDS011;47622;47.726;3.298;2023-02-28T09:54:15;5.68;;;4.70;;
61702;SDS011;47622;47.726;3.298;2023-02-28T09:59:25;6.63;;;4.10;;
61702;SDS011;47622;47.726;3.298;2023-02-28T10:04:36;6.57;;;4.15;;
61702;SDS011;47622;47.726;3.298;2023-02-28T10:07:21;5.30;;;4.68;;
61702;SDS011;47622;47.726;3.298;2023-02-28T10:09:59;5.75;;;4.40;;
61702;SDS011;47622;47.726;3.298;2023-02-28T10:12:33;6.13;;;4.82;;
61702;SDS011;47622;47.726;3.298;2023-02-28T10:15:03;7.22;;;5.38;;
61702;SDS011;47622;47.726;3.298;2023-02-28T10:17:35;8.20;;;4.88;;
61702;SDS011;47622;47.726;3.298;2023-02-28T10:20:06;6.78;;;5.22;;
61702;SDS011;47622;47.726;3.298;2023-02-28T10:22:52;5.10;;;4.60;;
61702;SDS011;47622;47.726;3.298;2023-02-28T10:25:26;10.18;;;5.65;;
61702;SDS011;47622;47.726;3.298;2023-02-28T10:27:56;11.13;;;5.70;;
61702;SDS011;47622;47.726;3.298;2023-02-28T10:30:26;7.78;;;5.95;;
61702;SDS011;47622;47.726;3.298;2023-02-28T10:32:53;5.20;;;4.70;;
61702;SDS011;47622;47.726;3.298;2023-02-28T10:35:23;6.28;;;4.97;;
61702;SDS011;47622;47.726;3.298;2023-02-28T10:37:52;6.45;;;5.03;;
61702;SDS011;47622;47.726;3.298;2023-02-28T10:45:25;5.38;;;4.47;;
61702;SDS011;47622;47.726;3.298;2023-02-28T10:47:56;6.20;;;5.20;;
61702;SDS011;47622;47.726;3.298;2023-02-28T10:50:27;7.10;;;5.45;;
61702;SDS011;47622;47.726;3.298;2023-02-28T10:52:57;7.00;;;5.40;;
61702;SDS011;47622;47.726;3.298;2023-02-28T10:58:47;7.22;;;5.43;;
61702;SDS011;47622;47.726;3.298;2023-02-28T11:01:18;8.70;;;5.47;;
61702;SDS011;47622;47.726;3.298;2023-02-28T11:03:59;7.32;;;5.78;;
61702;SDS011;47622;47.726;3.298;2023-02-28T11:06:27;8.13;;;5.45;;
61702;SDS011;47622;47.726;3.298;2023-02-28T11:08:56;6.85;;;5.03;;
61702;SDS011;47622;47.726;3.298;2023-02-28T11:11:25;7.90;;;5.63;;
61702;SDS011;47622;47.726;3.298;2023-02-28T11:13:53;9.63;;;5.80;;
61702;SDS011;47622;47.726;3.298;2023-02-28T11:16:22;7.80;;;5.43;;
61702;SDS011;47622;47.726;3.298;2023-02-28T11:18:58;7.25;;;5.70;;
61702;SDS011;47622;47.726;3.298;2023-02-28T11:21:29;6.93;;;5.85;;
61702;SDS011;47622;47.726;3.298;2023-02-28T11:24:44;8.63;;;5.68;;
61702;SDS011;47622;47.726;3.298;2023-02-28T11:26:59;8.95;;;6.18;;
61702;SDS011;47622;47.726;3.298;2023-02-28T11:29:29;8.13;;;6.07;;
61702;SDS011;47622;47.726;3.298;2023-02-28T11:34:39;9.13;;;5.75;;
61702;SDS011;47622;47.726;3.298;2023-02-28T11:37:16;7.43;;;5.85;;
61702;SDS011;47622;47.726;3.298;2023-02-28T11:39:44;8.27;;;6.13;;
61702;SDS011;47622;47.726;3.298;2023-02-28T11:45:18;6.05;;;5.07;;
61702;SDS011;47622;47.726;3.298;2023-02-28T11:55:57;8.07;;;6.00;;
61702;SDS011;47622;47.726;3.298;2023-02-28T11:58:53;8.35;;;6.10;;
61702;SDS011;47622;47.726;3.298;2023-02-28T12:10:26;8.73;;;6.13;;
61702;SDS011;47622;47.726;3.298;2023-02-28T12:20:53;6.85;;;5.35;;
61702;SDS011;47622;47.726;3.298;2023-02-28T12:28:56;9.75;;;6.68;;
61702;SDS011;47622;47.726;3.298;2023-02-28T12:31:27;13.27;;;6.97;;
61702;SDS011;47622;47.726;3.298;2023-02-28T12:34:06;8.25;;;6.00;;
61702;SDS011;47622;47.726;3.298;2023-02-28T12:36:36;9.95;;;6.40;;
61702;SDS011;47622;47.726;3.298;2023-02-28T12:39:08;8.68;;;6.55;;
61702;SDS011;47622;47.726;3.298;2023-02-28T12:41:41;9.82;;;6.18;;
61702;SDS011;47622;47.726;3.298;2023-02-28T12:44:19;10.27;;;7.72;;
61702;SDS011;47622;47.726;3.298;2023-02-28T12:46:54;8.02;;;5.95;;
61702;SDS011;47622;47.726;3.298;2023-02-28T12:52:13;8.43;;;7.03;;
61702;SDS011;47622;47.726;3.298;2023-02-28T12:55:03;12.80;;;6.85;;
61702;SDS011;47622;47.726;3.298;2023-02-28T13:00:35;10.82;;;7.25;;
61702;SDS011;47622;47.726;3.298;2023-02-28T13:03:12;8.45;;;6.88;;
61702;SDS011;47622;47.726;3.298;2023-02-28T13:11:31;9.57;;;6.65;;
61702;SDS011;47622;47.726;3.298;2023-02-28T13:19:20;9.60;;;6.68;;
61702;SDS011;47622;47.726;3.298;2023-02-28T13:21:49;9.10;;;7.30;;
61702;SDS011;47622;47.726;3.298;2023-02-28T13:34:35;8.88;;;7.18;;
61702;SDS011;47622;47.726;3.298;2023-02-28T13:39:46;10.27;;;6.93;;
61702;SDS011;47622;47.726;3.298;2023-02-28T13:42:33;12.80;;;7.10;;
61702;SDS011;47622;47.726;3.298;2023-02-28T13:47:44;9.10;;;7.03;;
61702;SDS011;47622;47.726;3.298;2023-02-28T13:53:03;8.93;;;7.03;;
61702;SDS011;47622;47.726;3.298;2023-02-28T13:55:37;12.25;;;7.72;;
61702;SDS011;47622;47.726;3.298;2023-02-28T13:58:12;10.23;;;7.85;;
61702;SDS011;47622;47.726;3.298;2023-02-28T14:00:52;11.10;;;6.72;;
61702;SDS011;47622;47.726;3.298;2023-02-28T14:06:51;12.07;;;7.18;;
61702;SDS011;47622;47.726;3.298;2023-02-28T14:09:27;10.07;;;7.25;;
61702;SDS011;47622;47.726;3.298;2023-02-28T14:11:57;9.77;;;7.43;;
61702;SDS011;47622;47.726;3.298;2023-02-28T14:17:12;12.35;;;7.72;;
61702;SDS011;47622;47.726;3.298;2023-02-28T14:19:41;10.73;;;7.72;;
61702;SDS011;47622;47.726;3.298;2023-02-28T14:38:05;12.45;;;8.00;;
61702;SDS011;47622;47.726;3.298;2023-02-28T14:40:37;10.18;;;7.50;;
61702;SDS011;47622;47.726;3.298;2023-02-28T14:43:05;10.75;;;7.50;;
61702;SDS011;47622;47.726;3.298;2023-02-28T14:45:43;11.48;;;8.02;;
61702;SDS011;47622;47.726;3.298;2023-02-28T14:48:14;11.40;;;7.93;;
61702;SDS011;47622;47.726;3.298;2023-02-28T14:50:42;10.98;;;7.63;;
61702;SDS011;47622;47.726;3.298;2023-02-28T14:53:18;11.25;;;8.27;;
61702;SDS011;47622;47.726;3.298;2023-02-28T14:55:47;10.57;;;7.75;;
61702;SDS011;47622;47.726;3.298;2023-02-28T15:00:54;13.88;;;8.02;;
61702;SDS011;47622;47.726;3.298;2023-02-28T15:06:22;10.23;;;7.65;;
61702;SDS011;47622;47.726;3.298;2023-02-28T15:08:43;9.48;;;7.88;;
61702;SDS011;47622;47.726;3.298;2023-02-28T15:11:13;11.73;;;7.65;;
61702;SDS011;47622;47.726;3.298;2023-02-28T15:13:50;11.68;;;7.43;;
61702;SDS011;47622;47.726;3.298;2023-02-28T15:16:20;13.45;;;8.68;;
61702;SDS011;47622;47.726;3.298;2023-02-28T15:18:50;10.23;;;7.78;;
61702;SDS011;47622;47.726;3.298;2023-02-28T15:21:31;10.20;;;8.02;;
61702;SDS011;47622;47.726;3.298;2023-02-28T15:24:07;12.20;;;8.00;;
61702;SDS011;47622;47.726;3.298;2023-02-28T15:26:38;10.43;;;8.02;;
61702;SDS011;47622;47.726;3.298;2023-02-28T15:29:06;12.23;;;8.55;;
61702;SDS011;47622;47.726;3.298;2023-02-28T15:31:41;18.48;;;10.10;;
61702;SDS011;47622;47.726;3.298;2023-02-28T15:36:46;12.27;;;8.00;;
61702;SDS011;47622;47.726;3.298;2023-02-28T15:39:23;11.02;;;7.72;;
61702;SDS011;47622;47.726;3.298;2023-02-28T15:41:52;13.25;;;8.73;;
61702;SDS011;47622;47.726;3.298;2023-02-28T15:44:34;10.88;;;7.65;;
61702;SDS011;47622;47.726;3.298;2023-02-28T15:47:06;11.57;;;8.23;;
61702;SDS011;47622;47.726;3.298;2023-02-28T15:49:51;12.57;;;8.95;;
61702;SDS011;47622;47.726;3.298;2023-02-28T15:52:18;13.48;;;8.57;;
61702;SDS011;47622;47.726;3.298;2023-02-28T15:54:47;13.95;;;8.85;;
61702;SDS011;47622;47.726;3.298;2023-02-28T15:57:24;13.68;;;9.32;;
61702;SDS011;47622;47.726;3.298;2023-02-28T15:59:52;15.90;;;9.35;;
61702;SDS011;47622;47.726;3.298;2023-02-28T16:02:21;13.88;;;9.68;;
61702;SDS011;47622;47.726;3.298;2023-02-28T16:07:42;11.93;;;8.52;;
61702;SDS011;47622;47.726;3.298;2023-02-28T16:10:10;12.85;;;8.75;;
61702;SDS011;47622;47.726;3.298;2023-02-28T16:12:37;12.32;;;9.00;;
61702;SDS011;47622;47.726;3.298;2023-02-28T16:15:46;12.93;;;9.38;;
61702;SDS011;47622;47.726;3.298;2023-02-28T16:18:00;17.10;;;11.10;;
61702;SDS011;47622;47.726;3.298;2023-02-28T16:20:29;42.13;;;19.40;;
61702;SDS011;47622;47.726;3.298;2023-02-28T16:22:56;18.92;;;10.55;;
61702;SDS011;47622;47.726;3.298;2023-02-28T16:25:55;11.73;;;8.40;;
61702;SDS011;47622;47.726;3.298;2023-02-28T16:30:42;11.38;;;8.55;;
61702;SDS011;47622;47.726;3.298;2023-02-28T16:33:08;14.00;;;9.32;;
61702;SDS011;47622;47.726;3.298;2023-02-28T16:35:34;10.90;;;8.00;;
61702;SDS011;47622;47.726;3.298;2023-02-28T16:38:00;12.52;;;8.90;;
61702;SDS011;47622;47.726;3.298;2023-02-28T16:40:26;13.35;;;9.00;;
61702;SDS011;47622;47.726;3.298;2023-02-28T16:42:54;13.63;;;9.13;;
61702;SDS011;47622;47.726;3.298;2023-02-28T16:45:28;16.88;;;8.52;;
61702;SDS011;47622;47.726;3.298;2023-02-28T16:47:54;14.07;;;8.98;;
61702;SDS011;47622;47.726;3.298;2023-02-28T16:50:21;12.90;;;8.57;;
61702;SDS011;47622;47.726;3.298;2023-02-28T16:52:49;11.98;;;9.10;;
61702;SDS011;47622;47.726;3.298;2023-02-28T16:55:17;14.43;;;9.10;;
61702;SDS011;47622;47.726;3.298;2023-02-28T16:57:43;16.63;;;9.75;;
61702;SDS011;47622;47.726;3.298;2023-02-28T17:00:10;13.90;;;9.07;;
61702;SDS011;47622;47.726;3.298;2023-02-28T17:02:38;12.88;;;9.38;;
61702;SDS011;47622;47.726;3.298;2023-02-28T17:05:05;12.18;;;9.10;;
61702;SDS011;47622;47.726;3.298;2023-02-28T17:07:31;14.82;;;9.27;;
61702;SDS011;47622;47.726;3.298;2023-02-28T17:09:57;13.05;;;9.40;;
61702;SDS011;47622;47.726;3.298;2023-02-28T17:12:23;14.00;;;9.30;;
61702;SDS011;47622;47.726;3.298;2023-02-28T17:14:48;13.63;;;9.55;;
61702;SDS011;47622;47.726;3.298;2023-02-28T17:17:18;13.57;;;9.90;;
61702;SDS011;47622;47.726;3.298;2023-02-28T17:19:46;15.05;;;9.60;;
61702;SDS011;47622;47.726;3.298;2023-02-28T17:22:12;14.40;;;9.10;;
61702;SDS011;47622;47.726;3.298;2023-02-28T17:24:38;13.80;;;9.10;;
61702;SDS011;47622;47.726;3.298;2023-02-28T17:27:03;14.95;;;9.90;;
61702;SDS011;47622;47.726;3.298;2023-02-28T17:29:29;14.85;;;9.50;;
61702;SDS011;47622;47.726;3.298;2023-02-28T17:31:55;16.05;;;9.70;;
61702;SDS011;47622;47.726;3.298;2023-02-28T17:34:20;15.23;;;9.70;;
61702;SDS011;47622;47.726;3.298;2023-02-28T17:36:48;16.27;;;9.85;;